White Oak, WV (25989)

3:42 PM EST on January 26, 2015 (GMT -0500)
APRSWXNET Cool Ridge WV US | Change Station
CLOSE
Current Station
Personal Weather Station
Location: Cool Ridge, WV
Elevation: 2962 ft
Nearby Weather Stations

Elev 2962 ft 37.66 °N, 81.09 °W | Updated 38 minutes ago

Overcast
Overcast
27 °F
Feels Like 27 °F
N
2
Wind Variable Wind from NNW
Gusts 8.0 mph

Today
High -- | Low -- °F
--% Chance of Precip.
Yesterday
High -- | Low -- °F
Precip. -- in
7:32 AM 5:41 PM
Waxing Crescent, 46% visible
Pressure 29.67 in
Visibility 1.8 miles
Clouds Overcast 700 ft
Windchill 27 °F
Dew Point 26 °F
Humidity 96%
Rainfall 0.34 in
Snow Depth Not available.
UV 0 out of 12
Pollen .10 out of 12
Air Quality Not available.
Flu Activity Not available.
SPECI KBKW 262031Z AUTO 31008KT 1 3/4SM -SN BR OVC007 M02/M04 A2967 RMK AO2 P0001 T10221044

More Conditions Fewer Conditions

Pressure 29.67 in
Visibility 1.8 miles
Clouds Overcast 700 ft
Windchill 27 °F
Dew Point 26 °F
Humidity 96%
Rainfall 0.34 in
Snow Depth Not available.
UV 0 out of 12
Pollen .10 out of 12
Air Quality Not available.
Flu Activity Not available.
SPECI KBKW 262031Z AUTO 31008KT 1 3/4SM -SN BR OVC007 M02/M04 A2967 RMK AO2 P0001 T10221044

More Conditions Fewer Conditions

10-Day Weather Forecast

Almanac

Astronomy

Jan. 26, 2015 Rise Set
Actual Time
Civil Twilight
Nautical Twilight
Astronomical Twilight
Moon
Length of Visible Light
Length of Day
Tomorrow will be .
, % of the Moon is Illuminated

Today's Extremes

State Highs State Lows

Community

WunderPhotos

Upload Photos

1,790,351 photos uploaded!

WunderBlogs® & News

Nearby

Air Quality

  Air Quality AQ Index Pollutant
Not available.

Snow Depth

Station Depth Elevation

Earthquake Activity

City Distance Mag. Time & Date
Minimum magnitude displayed is 2.5.

Coastal Water Temperatures

Place Temperature

Nearby Weather Stations